• Join FlightAware (Why Join?)
  • Login
  • US Flag 
05:21PM EDT


 

Airport Tracker/Info


-or-


 

Live Flight TrackerFlight Track Log ✈ AAY956 ✈ 08-Mar-2014 ✈ KPGD - KIAG

Flight Track Log - Related Links

Times and Time Zones

All times are in EST time to prevent confusion due to time zone crossing. See the AAY956 flight status page for this flight to view local times or setup timezone preferences in your user account.

Time Position Orientation Groundspeed Altitude Reporting Facility
EST Latitude Longitude Course Direction KTS MPH feet Rate Location/Type
08:49AM 27.0019 -81.9594 354° North 233 268 3,400  Level Miami Center
08:50AM 27.0725 -81.9647 356° North 257 296 3,900 780 Climbing Miami Center
08:51AM 27.1433 -81.9681 358° North 257 296 5,000 1,920 Climbing Miami Center
08:52AM 27.2186 -81.9689 359° North 257 296 7,800 2,640 Climbing Miami Center
08:53AM 27.2956 -81.9747 356° North 257 296 10,300 1,800 Climbing Miami Center
08:54AM 27.6034 -81.9504 354° North  Level FlightAware Approximate
08:54AM 27.3831 -81.9808 356° North 285 328 11,500  Level Miami Center
08:55AM 27.4892 -81.9903 355° North 324 373 13,600 2,040 Climbing Miami Center
08:56AM 27.5872 -81.9900 360° North 373 429 15,600 2,220 Climbing Miami Center
08:57AM 27.7119 -82.0028 355° North 402 463 18,100 2,100 Climbing Miami Center
08:58AM 27.8142 -82.0003 North 410 472 19,900 1,740 Climbing Miami Center
09:00AM 28.0450 -82.0742 344° North 424 488 23,500 1,320 Climbing Jacksonville Center
09:01AM 28.1353 -82.1511 323° Northwest 404 465 24,000 240 Climbing Jacksonville Center
09:02AM 28.2297 -82.2283 324° Northwest 409 471 24,000 600 Level Jacksonville Center
09:03AM 28.3175 -82.3103 321° Northwest 409 471 25,200 900 Climbing Jacksonville Center
09:04AM 28.4097 -82.3875 324° Northwest 409 471 25,900 1,020 Climbing Jacksonville Center
09:05AM 28.5039 -82.4581 327° Northwest 409 471 27,300 1,620 Climbing Jacksonville Center
09:06AM 28.6292 -82.4597 359° North 411 473 29,200 1,320 Climbing Jacksonville Center
09:07AM 28.7503 -82.4686 356° North 417 480 30,000 600 Climbing Jacksonville Center
09:08AM 28.8714 -82.4706 359° North 429 494 30,400 660 Climbing Jacksonville Center
09:09AM 28.9903 -82.4819 355° North 429 494 31,400 720 Climbing Jacksonville Center
09:10AM 29.1156 -82.4814 360° North 435 501 31,900 300 Climbing Jacksonville Center
09:11AM 29.2367 -82.4903 356° North 435 501 32,000  Climbing Jacksonville Center
09:12AM 29.3578 -82.4922 359° North 440 506 31,900 60 Descending Jacksonville Center
09:13AM 29.4789 -82.5014 356° North 440 506 32,200 540 Climbing Jacksonville Center
09:14AM 29.6042 -82.5081 357° North 440 506 33,000 360 Climbing Jacksonville Center
09:15AM 29.7253 -82.5122 358° North 440 506 33,000  Level Jacksonville Center
09:16AM 29.8506 -82.5189 357° North 440 506 33,000  Level Jacksonville Center
09:17AM 29.9717 -82.5233 358° North 440 506 33,000 -60 Level Jacksonville Center
09:18AM 30.1053 -82.5372 355° North 440 506 32,900  Descending Jacksonville Center
09:19AM 30.2283 -82.5392 359° North 440 506 33,000  Climbing Jacksonville Center
09:20AM 30.3475 -82.5483 356° North 440 506 33,000  Level Jacksonville Center
09:21AM 30.4706 -82.5503 359° North 440 506 33,000  Level Jacksonville Center
09:22AM 30.5917 -82.5500 360° North 440 506 33,000  Level Jacksonville Center
09:23AM 30.7150 -82.5422 North 440 506 33,000  Level Jacksonville Center
09:24AM 30.8403 -82.5417 360° North 440 506 33,000  Level Jacksonville Center
09:25AM 30.9614 -82.5342 North 440 506 33,000  Level Jacksonville Center
09:26AM 31.0844 -82.5311 North 440 506 33,000  Level Jacksonville Center
09:27AM 31.2056 -82.5258 North 440 506 33,000  Level Jacksonville Center
09:28AM 31.3142 -82.5253 360° North 435 501 33,000  Level Jacksonville Center
09:29AM 31.4414 -82.5103 North 445 512 33,000  Level Jacksonville Center
09:30AM 31.5647 -82.5072 North 445 512 33,000  Level Jacksonville Center
09:31AM 31.6897 -82.4825 10° North 444 511 33,000  Level Jacksonville Center
09:33AM 31.9056 -82.4536 North 434 499 33,000  Level Atlanta Center
09:34AM 32.0303 -82.4292 North 440 506 33,000  Level Atlanta Center
09:35AM 32.1533 -82.4147 North 440 506 33,000  Level Atlanta Center
09:36AM 32.2594 -82.3908 11° North 440 506 33,000  Level Atlanta Center
09:37AM 32.3803 -82.3811 North 435 501 33,000  Level Atlanta Center
09:38AM 32.5011 -82.3542 11° North 435 501 33,000  Level Atlanta Center
09:39AM 32.6200 -82.3422 North 435 501 33,000  Level Atlanta Center
09:40AM 32.7428 -82.3175 10° North 435 501 33,000  Level Atlanta Center
09:41AM 32.8636 -82.3003 North 435 501 33,000  Level Atlanta Center
09:42AM 32.9886 -82.2806 North 440 506 33,000  Level Atlanta Center
09:43AM 33.1092 -82.2583 North 445 512 33,000  Level Atlanta Center
09:44AM 33.2322 -82.2408 North 445 512 33,000  Level Atlanta Center
09:45AM 33.3550 -82.2208 North 445 512 33,000  Level Atlanta Center
09:46AM 33.4903 -82.1981 North 444 511 33,000  Level Atlanta Center
09:47AM 33.6131 -82.1756 North 444 511 33,000  Level Atlanta Center
09:48AM 33.7361 -82.1578 North 444 511 33,000  Level Atlanta Center
09:49AM 33.8586 -82.1325 10° North 444 511 33,000  Level Atlanta Center
09:50AM 33.9775 -82.1175 North 444 511 33,000  Level Atlanta Center
09:51AM 34.1022 -82.0919 10° North 444 511 33,000  Level Atlanta Center
09:52AM 34.2253 -82.0742 North 444 511 33,000  Level Atlanta Center
09:53AM 34.3458 -82.0486 10° North 444 511 33,000  Level Atlanta Center
09:54AM 34.4561 -82.0336 North 444 511 33,000  Level Atlanta Center
09:55AM 34.5789 -82.0078 10° North 444 511 33,000  Level Atlanta Center
09:56AM 34.6994 -81.9872 North 444 511 33,000  Level Atlanta Center
09:57AM 34.8203 -81.9692 North 438 504 33,000  Level Atlanta Center
09:58AM 34.9556 -81.9506 North 438 504 33,000  Level Atlanta Center
09:59AM 35.0761 -81.9247 10° North 438 504 33,000  Level Atlanta Center
10:00AM 35.1944 -81.8836 16° North 438 504 33,000  Level Atlanta Center
10:01AM 35.3150 -81.8550 11° North 438 504 33,000  Level Atlanta Center
10:02AM 35.4372 -81.8133 16° North 443 510 33,000  Level Atlanta Center
10:03AM 35.5556 -81.7847 11° North 443 510 33,000  Level Atlanta Center
10:04AM 35.6800 -81.7456 14° North 448 516 33,000  Level Atlanta Center
10:05AM 35.8006 -81.7164 11° North 448 516 33,000  Level Atlanta Center
10:06AM 35.9250 -81.6719 16° North 448 516 33,000  Level Atlanta Center
10:07AM 36.0308 -81.6431 12° North 448 516 33,000  Level Atlanta Center
10:08AM 36.1553 -81.6086 13° North 442 509 33,000  Level Atlanta Center
10:09AM 36.2753 -81.5714 14° North 448 516 33,000  Level Atlanta Center
10:10AM 36.3978 -81.5367 13° North 448 516 33,000  Level Atlanta Center
10:11AM 36.5158 -81.5019 13° North 448 516 33,000  Level Atlanta Center
10:12AM 36.6319 -81.4675 13° North 442 509 33,000  Level Atlanta Center
10:13AM 36.7522 -81.4297 14° North 437 503 33,000  Level Atlanta Center
10:14AM 36.8600 -81.4003 12° North 412 474 33,000  Level Atlanta Center
10:15AM 37.0908 -81.3347 13° North 441 507 33,000  Level Indianapolis Center
10:16AM 37.2072 -81.2967 15° North 436 502 33,000  Level Indianapolis Center
10:18AM 37.3294 -81.2608 13° North 435 501 33,000  Level Indianapolis Center
10:19AM 37.4422 -81.2247 14° North 433 498 33,000  Level Indianapolis Center
10:20AM 37.5586 -81.1908 13° North 434 499 33,000  Level Indianapolis Center
10:21AM 37.6750 -81.1572 13° North 435 501 33,000  Level Indianapolis Center
10:22AM 37.8103 -81.1136 14° North 433 498 33,000  Level Indianapolis Center
10:23AM 37.9194 -81.0886 10° North 433 498 33,000  Level Indianapolis Center
10:24AM 38.0358 -81.0469 16° North 433 498 33,000  Level Indianapolis Center
10:25AM 38.1550 -81.0206 10° North 433 498 33,000  Level Indianapolis Center
10:26AM 38.2714 -80.9814 15° North 433 498 33,000  Level Indianapolis Center
10:27AM 38.4106 -80.9447 12° North 432 497 33,000  Level Indianapolis Center
10:28AM 38.5272 -80.9044 15° North 431 496 33,000  Level Indianapolis Center
10:29AM 38.6533 -80.8742 11° North 431 496 33,000  Level Indianapolis Center
10:30AM 38.7603 -80.8339 16° North 432 497 33,000  Level Indianapolis Center
10:31AM 38.8769 -80.8061 11° North 432 497 33,000  Level Indianapolis Center
10:32AM 38.9928 -80.7686 14° North 429 494 33,000  Level Indianapolis Center
10:33AM 39.1094 -80.7339 13° North 431 496 33,000  Level Indianapolis Center
10:34AM 39.2486 -80.6911 13° North 430 495 33,000  Level Indianapolis Center
10:35AM 39.3661 -80.6453 17° North 434 499 33,000  Level Indianapolis Center
10:36AM 39.4828 -80.6025 16° North 437 503 33,000  Level Indianapolis Center
10:37AM 39.5981 -80.5475 20° North 437 503 33,000  Level Indianapolis Center
10:38AM 39.7031 -80.5078 16° North 439 505 33,000  Level Cleveland Center
10:39AM 39.8183 -80.4528 20° North 442 509 33,000  Level Cleveland Center
10:40AM 39.9356 -80.4044 18° North 445 512 33,000  Level Cleveland Center
10:41AM 40.0522 -80.3517 19° North 442 509 33,000  Level Cleveland Center
10:42AM 40.1697 -80.3019 18° North 442 509 33,000  Level Cleveland Center
10:43AM 40.2858 -80.2500 19° North 442 509 33,000 -540 Level Cleveland Center
10:44AM 40.4125 -80.1967 18° North 442 509 32,000 -1,020 Descending Cleveland Center
10:45AM 40.5283 -80.1419 20° North 442 509 31,000 -540 Descending Cleveland Center
10:46AM 40.6453 -80.0917 18° North 442 509 31,000  Level Cleveland Center
10:47AM 40.7611 -80.0392 19° North 440 506 31,000 -360 Level Cleveland Center
10:48AM 40.8794 -79.9853 19° North 443 510 30,300 -1,080 Descending Cleveland Center
10:49AM 40.9950 -79.9383 17° North 439 505 28,900 -1,140 Descending Cleveland Center
10:50AM 41.1292 -79.8717 21° North 429 494 28,000 -480 Descending Cleveland Center
10:51AM 41.2406 -79.8250 17° North 425 489 28,000  Level Cleveland Center
10:52AM 41.3528 -79.7692 20° North 430 495 28,000  Level Cleveland Center
10:53AM 41.4658 -79.7233 17° North 428 493 28,000 -240 Level Cleveland Center
10:55AM 41.6029 -79.6429 19° North  Level FlightAware Approximate
10:55AM 41.6900 -79.6194 19° North 425 489 27,400  Level Cleveland Center
10:56AM 41.8258 -79.5528 20° North 428 493 25,300 -2,040 Descending Cleveland Center
10:57AM 41.9378 -79.5042 18° North 424 488 23,300 -1,920 Descending Cleveland Center
10:58AM 42.0481 -79.4472 21° North 425 489 21,400 -1,860 Descending Cleveland Center
10:59AM 42.1589 -79.4011 17° North 421 484 19,500 -1,860 Descending Cleveland Center
11:00AM 42.2664 -79.3444 21° North 418 481 17,600 -1,920 Descending Cleveland Center
11:01AM 42.3717 -79.3008 17° North 400 460 15,600 -2,040 Descending Cleveland Center
11:02AM 42.4706 -79.2475 22° Northeast 391 450 13,500 -2,220 Descending Cleveland Center
11:03AM 42.5850 -79.2025 16° North 358 412 11,100 -1,680 Descending Cleveland Center
11:04AM 42.6694 -79.1550 22° Northeast 334 384 10,100 -1,260 Descending Cleveland Center
11:06AM 42.7458 -79.1244 16° North 297 342 8,600 -1,620 Descending Cleveland Center
11:07AM 42.8114 -79.0478 41° Northeast 301 346 6,900 -1,680 Descending Cleveland Center
11:08AM 42.8733 -78.9669 44° Northeast 299 344 5,200 -960 Descending Cleveland Center
11:09AM 42.9275 -78.9061 39° Northeast 267 307 5,000 -360 Descending Cleveland Center
11:09AM 42.9667 -78.8500 46° Northeast 206 237 4,600 -900 Descending Buffalo TRACON
11:10AM 43.0167 -78.8000 36° Northeast 205 236 3,300 -1,200 Descending Buffalo TRACON
11:11AM 43.0500 -78.7333 56° Northeast 207 238 2,300 -600 Descending Buffalo TRACON
11:12AM 43.1000 -78.7333 360° North 165 190 2,200 -120 Descending Buffalo TRACON
11:14AM 43.1167 -78.8167 285° West 168 193 2,100 -420 Descending Buffalo TRACON
11:15AM 43.1167 -78.8667 270° West 146 168 1,300 -660 Descending Buffalo TRACON
11:16AM 43.1167 -78.9167 270° West 122 140 800 -600 Descending Buffalo TRACON